sensor_id;sensor_type;location;lat;lon;timestamp;temperature;humidity
3794;DHT22;1912;51.358;12.282;2022-12-10T07:24:35;-0.40;1.00
3794;DHT22;1912;51.358;12.282;2022-12-10T07:27:05;-0.40;1.00
3794;DHT22;1912;51.358;12.282;2022-12-10T07:29:31;-0.40;1.00
3794;DHT22;1912;51.358;12.282;2022-12-10T07:31:57;-0.40;1.00
3794;DHT22;1912;51.358;12.282;2022-12-10T07:34:23;-0.40;1.00
3794;DHT22;1912;51.358;12.282;2022-12-10T07:36:48;-0.40;1.00
3794;DHT22;1912;51.358;12.282;2022-12-10T07:39:14;-0.30;1.00
3794;DHT22;1912;51.358;12.282;2022-12-10T07:41:52;-0.40;1.00
3794;DHT22;1912;51.358;12.282;2022-12-10T07:44:20;-0.30;1.00
3794;DHT22;1912;51.358;12.282;2022-12-10T07:46:46;-0.40;1.00
3794;DHT22;1912;51.358;12.282;2022-12-10T07:49:13;-0.40;1.00
3794;DHT22;1912;51.358;12.282;2022-12-10T07:51:39;-0.40;1.00
3794;DHT22;1912;51.358;12.282;2022-12-10T07:54:09;-0.40;1.00
3794;DHT22;1912;51.358;12.282;2022-12-10T07:56:35;-0.40;1.00
3794;DHT22;1912;51.358;12.282;2022-12-10T07:59:00;-0.50;1.00
3794;DHT22;1912;51.358;12.282;2022-12-10T08:01:26;-0.50;1.00
3794;DHT22;1912;51.358;12.282;2022-12-10T08:03:54;-0.50;1.00
3794;DHT22;1912;51.358;12.282;2022-12-10T08:06:24;-0.40;1.00
3794;DHT22;1912;51.358;12.282;2022-12-10T08:08:52;-0.40;1.00
3794;DHT22;1912;51.358;12.282;2022-12-10T08:11:19;-0.40;1.00
3794;DHT22;1912;51.358;12.282;2022-12-10T08:13:46;-0.40;1.00
3794;DHT22;1912;51.358;12.282;2022-12-10T08:16:14;-0.40;1.00
3794;DHT22;1912;51.358;12.282;2022-12-10T08:18:41;-0.40;1.00
3794;DHT22;1912;51.358;12.282;2022-12-10T08:21:16;-0.40;1.00
3794;DHT22;1912;51.358;12.282;2022-12-10T08:23:44;-0.40;1.00
3794;DHT22;1912;51.358;12.282;2022-12-10T08:26:13;-0.50;1.00
3794;DHT22;1912;51.358;12.282;2022-12-10T08:28:44;-0.40;1.00
3794;DHT22;1912;51.358;12.282;2022-12-10T08:31:12;-0.30;1.00
3794;DHT22;1912;51.358;12.282;2022-12-10T08:33:40;-0.30;1.00
3794;DHT22;1912;51.358;12.282;2022-12-10T08:36:07;-0.30;1.00
3794;DHT22;1912;51.358;12.282;2022-12-10T08:38:35;-0.40;1.00
3794;DHT22;1912;51.358;12.282;2022-12-10T08:41:09;-0.30;1.00
3794;DHT22;1912;51.358;12.282;2022-12-10T08:43:39;-0.30;1.00
3794;DHT22;1912;51.358;12.282;2022-12-10T08:46:05;-0.30;1.00
3794;DHT22;1912;51.358;12.282;2022-12-10T08:48:32;-0.30;1.00
3794;DHT22;1912;51.358;12.282;2022-12-10T08:50:58;-0.40;1.00
3794;DHT22;1912;51.358;12.282;2022-12-10T08:53:24;-0.40;1.00
3794;DHT22;1912;51.358;12.282;2022-12-10T08:55:51;-0.30;1.00
3794;DHT22;1912;51.358;12.282;2022-12-10T08:58:18;-0.20;1.00
3794;DHT22;1912;51.358;12.282;2022-12-10T09:00:44;-0.30;1.00
3794;DHT22;1912;51.358;12.282;2022-12-10T09:03:11;-0.30;1.00
3794;DHT22;1912;51.358;12.282;2022-12-10T09:05:37;-0.30;1.00
3794;DHT22;1912;51.358;12.282;2022-12-10T09:08:03;-0.30;1.00
3794;DHT22;1912;51.358;12.282;2022-12-10T09:10:28;-0.30;1.00
3794;DHT22;1912;51.358;12.282;2022-12-10T09:12:54;-0.30;1.00
3794;DHT22;1912;51.358;12.282;2022-12-10T09:15:20;-0.20;1.00
3794;DHT22;1912;51.358;12.282;2022-12-10T09:17:45;-0.10;1.00
3794;DHT22;1912;51.358;12.282;2022-12-10T09:20:11;-0.10;1.00
3794;DHT22;1912;51.358;12.282;2022-12-10T09:22:38;-0.10;1.00
3794;DHT22;1912;51.358;12.282;2022-12-10T09:25:06;-0.20;1.00
3794;DHT22;1912;51.358;12.282;2022-12-10T09:27:33;-0.20;1.00
3794;DHT22;1912;51.358;12.282;2022-12-10T09:29:58;-0.20;1.00
3794;DHT22;1912;51.358;12.282;2022-12-10T09:32:24;-0.30;1.00
3794;DHT22;1912;51.358;12.282;2022-12-10T09:34:53;-0.20;1.00
3794;DHT22;1912;51.358;12.282;2022-12-10T09:37:19;-0.10;1.00
3794;DHT22;1912;51.358;12.282;2022-12-10T09:39:45;-0.20;1.00
3794;DHT22;1912;51.358;12.282;2022-12-10T09:50:59;-0.30;1.00
3794;DHT22;1912;51.358;12.282;2022-12-10T09:53:38;-0.30;1.00
3794;DHT22;1912;51.358;12.282;2022-12-10T09:56:06;-0.30;1.00
3794;DHT22;1912;51.358;12.282;2022-12-10T09:58:35;-0.30;1.00
3794;DHT22;1912;51.358;12.282;2022-12-10T10:01:04;-0.30;1.00
3794;DHT22;1912;51.358;12.282;2022-12-10T10:03:41;-0.20;1.00
3794;DHT22;1912;51.358;12.282;2022-12-10T10:06:11;-0.30;1.00
3794;DHT22;1912;51.358;12.282;2022-12-10T10:08:50;-0.20;1.00
3794;DHT22;1912;51.358;12.282;2022-12-10T10:11:24;-0.20;1.00
3794;DHT22;1912;51.358;12.282;2022-12-10T10:14:01;-0.20;1.00
3794;DHT22;1912;51.358;12.282;2022-12-10T10:16:43;-0.20;1.00
3794;DHT22;1912;51.358;12.282;2022-12-10T10:19:20;-0.20;1.00
3794;DHT22;1912;51.358;12.282;2022-12-10T10:21:50;-0.10;1.00
3794;DHT22;1912;51.358;12.282;2022-12-10T10:24:19;0.00;1.00
3794;DHT22;1912;51.358;12.282;2022-12-10T10:26:48;-0.10;1.00
3794;DHT22;1912;51.358;12.282;2022-12-10T10:29:20;-0.10;1.00
3794;DHT22;1912;51.358;12.282;2022-12-10T10:31:47;0.00;1.00
3794;DHT22;1912;51.358;12.282;2022-12-10T10:34:23;0.00;1.00
3794;DHT22;1912;51.358;12.282;2022-12-10T10:36:56;-0.10;1.00
3794;DHT22;1912;51.358;12.282;2022-12-10T10:39:28;0.00;1.00
3794;DHT22;1912;51.358;12.282;2022-12-10T10:41:57;0.00;1.00
3794;DHT22;1912;51.358;12.282;2022-12-10T10:44:27;-0.10;1.00
3794;DHT22;1912;51.358;12.282;2022-12-10T10:46:55;0.00;1.00
3794;DHT22;1912;51.358;12.282;2022-12-10T10:49:26;-0.10;1.00
3794;DHT22;1912;51.358;12.282;2022-12-10T10:51:59;-0.10;1.00
3794;DHT22;1912;51.358;12.282;2022-12-10T10:54:33;0.00;1.00
3794;DHT22;1912;51.358;12.282;2022-12-10T10:57:06;0.00;1.00
3794;DHT22;1912;51.358;12.282;2022-12-10T10:59:38;0.00;1.00
3794;DHT22;1912;51.358;12.282;2022-12-10T11:02:15;0.00;1.00
3794;DHT22;1912;51.358;12.282;2022-12-10T11:04:50;0.00;1.00
3794;DHT22;1912;51.358;12.282;2022-12-10T11:07:34;0.00;1.00
3794;DHT22;1912;51.358;12.282;2022-12-10T11:12:57;0.00;1.00
3794;DHT22;1912;51.358;12.282;2022-12-10T11:15:35;0.00;1.00
3794;DHT22;1912;51.358;12.282;2022-12-10T11:18:14;-0.10;1.00
3794;DHT22;1912;51.358;12.282;2022-12-10T11:21:09;-0.10;1.00
3794;DHT22;1912;51.358;12.282;2022-12-10T11:23:44;-0.10;1.00
3794;DHT22;1912;51.358;12.282;2022-12-10T11:29:12;-0.10;1.00
3794;DHT22;1912;51.358;12.282;2022-12-10T11:35:02;0.00;1.00
3794;DHT22;1912;51.358;12.282;2022-12-10T11:37:56;0.00;1.00
3794;DHT22;1912;51.358;12.282;2022-12-10T11:40:47;0.00;1.00
3794;DHT22;1912;51.358;12.282;2022-12-10T11:43:27;0.00;1.00
3794;DHT22;1912;51.358;12.282;2022-12-10T11:49:47;0.00;1.00
3794;DHT22;1912;51.358;12.282;2022-12-10T12:01:55;0.20;1.00
3794;DHT22;1912;51.358;12.282;2022-12-10T12:10:58;0.20;1.00
3794;DHT22;1912;51.358;12.282;2022-12-10T12:16:33;0.20;1.00
3794;DHT22;1912;51.358;12.282;2022-12-10T12:19:14;0.10;1.00
3794;DHT22;1912;51.358;12.282;2022-12-10T12:21:45;0.10;1.00
3794;DHT22;1912;51.358;12.282;2022-12-10T12:24:33;0.10;1.00
3794;DHT22;1912;51.358;12.282;2022-12-10T12:30:00;0.10;1.00
3794;DHT22;1912;51.358;12.282;2022-12-10T12:32:36;0.10;1.00
3794;DHT22;1912;51.358;12.282;2022-12-10T12:35:19;0.10;1.00
3794;DHT22;1912;51.358;12.282;2022-12-10T12:38:32;0.10;1.00
3794;DHT22;1912;51.358;12.282;2022-12-10T12:41:26;0.10;1.00
3794;DHT22;1912;51.358;12.282;2022-12-10T12:44:02;0.10;1.00
3794;DHT22;1912;51.358;12.282;2022-12-10T12:46:37;0.10;1.00
3794;DHT22;1912;51.358;12.282;2022-12-10T12:49:29;0.10;1.00
3794;DHT22;1912;51.358;12.282;2022-12-10T12:52:25;0.20;1.00
3794;DHT22;1912;51.358;12.282;2022-12-10T12:54:57;0.20;1.00
3794;DHT22;1912;51.358;12.282;2022-12-10T12:57:39;0.30;1.00
3794;DHT22;1912;51.358;12.282;2022-12-10T13:00:14;0.30;1.00
3794;DHT22;1912;51.358;12.282;2022-12-10T13:03:05;0.30;1.00
3794;DHT22;1912;51.358;12.282;2022-12-10T13:05:37;0.30;1.00
3794;DHT22;1912;51.358;12.282;2022-12-10T13:10:57;0.30;1.00
3794;DHT22;1912;51.358;12.282;2022-12-10T13:22:05;0.30;1.00
3794;DHT22;1912;51.358;12.282;2022-12-10T13:37:35;0.30;1.00
3794;DHT22;1912;51.358;12.282;2022-12-10T13:49:25;0.40;1.00
3794;DHT22;1912;51.358;12.282;2022-12-10T13:52:26;0.50;1.00
3794;DHT22;1912;51.358;12.282;2022-12-10T14:00:55;0.50;1.00
3794;DHT22;1912;51.358;12.282;2022-12-10T14:11:58;0.60;1.00
3794;DHT22;1912;51.358;12.282;2022-12-10T14:14:35;0.50;1.00
3794;DHT22;1912;51.358;12.282;2022-12-10T14:17:05;0.40;1.00
3794;DHT22;1912;51.358;12.282;2022-12-10T14:19:36;0.40;1.00
3794;DHT22;1912;51.358;12.282;2022-12-10T14:22:17;0.40;1.00
3794;DHT22;1912;51.358;12.282;2022-12-10T14:24:47;0.40;1.00
3794;DHT22;1912;51.358;12.282;2022-12-10T14:27:19;0.40;1.00
3794;DHT22;1912;51.358;12.282;2022-12-10T14:29:52;0.50;1.00
3794;DHT22;1912;51.358;12.282;2022-12-10T14:32:33;0.40;1.00
3794;DHT22;1912;51.358;12.282;2022-12-10T14:35:00;0.40;1.00
3794;DHT22;1912;51.358;12.282;2022-12-10T14:37:33;0.40;1.00
3794;DHT22;1912;51.358;12.282;2022-12-10T14:40:00;0.30;1.00
3794;DHT22;1912;51.358;12.282;2022-12-10T14:42:27;0.40;1.00
3794;DHT22;1912;51.358;12.282;2022-12-10T14:45:02;0.30;1.00
3794;DHT22;1912;51.358;12.282;2022-12-10T14:47:36;0.40;1.00
3794;DHT22;1912;51.358;12.282;2022-12-10T14:50:05;0.30;1.00
3794;DHT22;1912;51.358;12.282;2022-12-10T14:52:41;0.30;1.00
3794;DHT22;1912;51.358;12.282;2022-12-10T14:55:15;0.20;1.00
3794;DHT22;1912;51.358;12.282;2022-12-10T14:57:47;0.30;1.00
3794;DHT22;1912;51.358;12.282;2022-12-10T15:00:17;0.30;1.00
3794;DHT22;1912;51.358;12.282;2022-12-10T15:02:46;0.30;1.00
3794;DHT22;1912;51.358;12.282;2022-12-10T15:05:19;0.30;1.00
3794;DHT22;1912;51.358;12.282;2022-12-10T15:08:03;0.20;1.00
3794;DHT22;1912;51.358;12.282;2022-12-10T15:10:42;0.30;1.00
3794;DHT22;1912;51.358;12.282;2022-12-10T15:13:22;0.30;1.00
3794;DHT22;1912;51.358;12.282;2022-12-10T15:15:52;0.30;1.00
3794;DHT22;1912;51.358;12.282;2022-12-10T15:18:25;0.30;1.00
3794;DHT22;1912;51.358;12.282;2022-12-10T15:20:59;0.30;1.00
3794;DHT22;1912;51.358;12.282;2022-12-10T15:26:04;0.30;1.00
3794;DHT22;1912;51.358;12.282;2022-12-10T15:28:47;0.30;1.00
3794;DHT22;1912;51.358;12.282;2022-12-10T15:34:11;0.20;1.00
3794;DHT22;1912;51.358;12.282;2022-12-10T15:36:41;0.20;1.00
3794;DHT22;1912;51.358;12.282;2022-12-10T15:41:54;0.20;1.00
3794;DHT22;1912;51.358;12.282;2022-12-10T15:47:18;0.20;1.00
3794;DHT22;1912;51.358;12.282;2022-12-10T15:49:46;0.20;1.00
3794;DHT22;1912;51.358;12.282;2022-12-10T15:52:14;0.20;1.00
3794;DHT22;1912;51.358;12.282;2022-12-10T15:54:43;0.10;1.00
3794;DHT22;1912;51.358;12.282;2022-12-10T15:57:14;0.20;1.00
3794;DHT22;1912;51.358;12.282;2022-12-10T15:59:41;0.10;1.00
3794;DHT22;1912;51.358;12.282;2022-12-10T16:07:36;0.10;1.00
3794;DHT22;1912;51.358;12.282;2022-12-10T16:10:02;0.10;1.00
3794;DHT22;1912;51.358;12.282;2022-12-10T16:12:28;0.10;1.00
3794;DHT22;1912;51.358;12.282;2022-12-10T16:14:55;0.10;1.00
3794;DHT22;1912;51.358;12.282;2022-12-10T16:17:25;0.00;1.00
3794;DHT22;1912;51.358;12.282;2022-12-10T16:19:53;0.10;1.00
3794;DHT22;1912;51.358;12.282;2022-12-10T16:22:21;0.00;1.00
3794;DHT22;1912;51.358;12.282;2022-12-10T16:24:47;0.10;1.00
3794;DHT22;1912;51.358;12.282;2022-12-10T16:27:14;0.10;1.00
3794;DHT22;1912;51.358;12.282;2022-12-10T16:29:41;0.10;1.00
3794;DHT22;1912;51.358;12.282;2022-12-10T16:32:11;0.20;1.00
3794;DHT22;1912;51.358;12.282;2022-12-10T16:34:38;0.10;1.00
3794;DHT22;1912;51.358;12.282;2022-12-10T16:37:04;0.10;1.00
3794;DHT22;1912;51.358;12.282;2022-12-10T16:39:31;0.10;1.00
3794;DHT22;1912;51.358;12.282;2022-12-10T16:41:57;0.10;1.00
3794;DHT22;1912;51.358;12.282;2022-12-10T16:44:22;0.10;1.00
3794;DHT22;1912;51.358;12.282;2022-12-10T16:46:48;0.10;1.00
3794;DHT22;1912;51.358;12.282;2022-12-10T16:49:14;0.20;1.00
3794;DHT22;1912;51.358;12.282;2022-12-10T16:51:40;0.10;1.00
3794;DHT22;1912;51.358;12.282;2022-12-10T16:54:09;0.10;1.00
3794;DHT22;1912;51.358;12.282;2022-12-10T16:56:37;0.20;1.00
3794;DHT22;1912;51.358;12.282;2022-12-10T16:59:03;0.10;1.00
3794;DHT22;1912;51.358;12.282;2022-12-10T17:01:29;0.10;1.00
3794;DHT22;1912;51.358;12.282;2022-12-10T17:03:57;0.00;1.00
3794;DHT22;1912;51.358;12.282;2022-12-10T17:06:24;0.00;1.00
3794;DHT22;1912;51.358;12.282;2022-12-10T17:08:50;0.00;1.00
3794;DHT22;1912;51.358;12.282;2022-12-10T17:11:25;0.00;1.00
3794;DHT22;1912;51.358;12.282;2022-12-10T17:14:25;0.00;1.00
3794;DHT22;1912;51.358;12.282;2022-12-10T17:16:55;0.00;1.00
3794;DHT22;1912;51.358;12.282;2022-12-10T17:19:23;0.00;1.00
3794;DHT22;1912;51.358;12.282;2022-12-10T17:21:50;-0.10;1.00
3794;DHT22;1912;51.358;12.282;2022-12-10T17:24:16;-0.10;1.00
3794;DHT22;1912;51.358;12.282;2022-12-10T17:26:45;-0.20;1.00
3794;DHT22;1912;51.358;12.282;2022-12-10T17:29:24;-0.20;1.00
3794;DHT22;1912;51.358;12.282;2022-12-10T17:31:51;-0.20;1.00
3794;DHT22;1912;51.358;12.282;2022-12-10T17:34:17;-0.30;1.00
3794;DHT22;1912;51.358;12.282;2022-12-10T17:36:43;-0.30;1.00
3794;DHT22;1912;51.358;12.282;2022-12-10T17:39:17;-0.40;1.00
3794;DHT22;1912;51.358;12.282;2022-12-10T17:41:44;-0.40;1.00
3794;DHT22;1912;51.358;12.282;2022-12-10T17:44:10;-0.30;1.00
3794;DHT22;1912;51.358;12.282;2022-12-10T17:46:36;-0.30;1.00
3794;DHT22;1912;51.358;12.282;2022-12-10T17:49:03;-0.30;1.00
3794;DHT22;1912;51.358;12.282;2022-12-10T17:51:30;-0.30;1.00
3794;DHT22;1912;51.358;12.282;2022-12-10T17:53:57;-0.40;1.00
3794;DHT22;1912;51.358;12.282;2022-12-10T17:56:25;-0.50;1.00
3794;DHT22;1912;51.358;12.282;2022-12-10T17:58:55;-0.50;1.00
3794;DHT22;1912;51.358;12.282;2022-12-10T18:01:22;-0.50;1.00
3794;DHT22;1912;51.358;12.282;2022-12-10T18:03:48;-0.60;1.00
3794;DHT22;1912;51.358;12.282;2022-12-10T18:06:19;-0.60;1.00
3794;DHT22;1912;51.358;12.282;2022-12-10T18:08:46;-0.50;1.00
3794;DHT22;1912;51.358;12.282;2022-12-10T18:11:15;-0.50;1.00
3794;DHT22;1912;51.358;12.282;2022-12-10T18:13:42;-0.50;1.00
3794;DHT22;1912;51.358;12.282;2022-12-10T18:16:15;-0.50;1.00
3794;DHT22;1912;51.358;12.282;2022-12-10T18:18:43;-0.50;1.00
3794;DHT22;1912;51.358;12.282;2022-12-10T18:21:09;-0.50;1.00
3794;DHT22;1912;51.358;12.282;2022-12-10T18:23:38;-0.50;1.00
3794;DHT22;1912;51.358;12.282;2022-12-10T18:26:08;-0.40;1.00
3794;DHT22;1912;51.358;12.282;2022-12-10T18:31:03;-0.50;1.00
3794;DHT22;1912;51.358;12.282;2022-12-10T18:33:40;-0.50;1.00
3794;DHT22;1912;51.358;12.282;2022-12-10T18:36:16;-0.60;1.00
3794;DHT22;1912;51.358;12.282;2022-12-10T18:38:48;-0.60;1.00
3794;DHT22;1912;51.358;12.282;2022-12-10T18:41:16;-0.60;1.00
3794;DHT22;1912;51.358;12.282;2022-12-10T18:43:42;-0.60;1.00
3794;DHT22;1912;51.358;12.282;2022-12-10T18:46:16;-0.60;1.00
3794;DHT22;1912;51.358;12.282;2022-12-10T18:48:44;-0.60;1.00
3794;DHT22;1912;51.358;12.282;2022-12-10T18:51:12;-0.60;1.00
3794;DHT22;1912;51.358;12.282;2022-12-10T18:53:41;-0.60;1.00
3794;DHT22;1912;51.358;12.282;2022-12-10T18:56:11;-0.70;1.00
3794;DHT22;1912;51.358;12.282;2022-12-10T18:58:46;-0.60;1.00
3794;DHT22;1912;51.358;12.282;2022-12-10T19:01:14;-0.60;1.00
3794;DHT22;1912;51.358;12.282;2022-12-10T19:03:42;-0.60;1.00
3794;DHT22;1912;51.358;12.282;2022-12-10T19:06:19;-0.60;1.00
3794;DHT22;1912;51.358;12.282;2022-12-10T19:08:47;-0.50;1.00
3794;DHT22;1912;51.358;12.282;2022-12-10T19:11:13;-0.50;1.00
3794;DHT22;1912;51.358;12.282;2022-12-10T19:13:41;-0.50;1.00
3794;DHT22;1912;51.358;12.282;2022-12-10T19:16:12;-0.40;1.00
3794;DHT22;1912;51.358;12.282;2022-12-10T19:18:40;-0.40;1.00
3794;DHT22;1912;51.358;12.282;2022-12-10T19:21:06;-0.40;1.00
3794;DHT22;1912;51.358;12.282;2022-12-10T19:23:33;-0.50;1.00
3794;DHT22;1912;51.358;12.282;2022-12-10T19:25:59;-0.50;1.00
3794;DHT22;1912;51.358;12.282;2022-12-10T19:28:25;-0.50;1.00
3794;DHT22;1912;51.358;12.282;2022-12-10T19:30:50;-0.40;1.00
3794;DHT22;1912;51.358;12.282;2022-12-10T19:33:17;-0.40;1.00
3794;DHT22;1912;51.358;12.282;2022-12-10T19:35:43;-0.40;1.00
3794;DHT22;1912;51.358;12.282;2022-12-10T19:38:11;-0.40;1.00
3794;DHT22;1912;51.358;12.282;2022-12-10T19:40:37;-0.40;1.00
3794;DHT22;1912;51.358;12.282;2022-12-10T19:43:04;-0.40;1.00
3794;DHT22;1912;51.358;12.282;2022-12-10T19:45:31;-0.40;1.00
3794;DHT22;1912;51.358;12.282;2022-12-10T19:47:58;-0.40;1.00
3794;DHT22;1912;51.358;12.282;2022-12-10T19:50:30;-0.40;1.00
3794;DHT22;1912;51.358;12.282;2022-12-10T19:53:00;-0.40;1.00
3794;DHT22;1912;51.358;12.282;2022-12-10T19:55:28;-0.50;1.00
3794;DHT22;1912;51.358;12.282;2022-12-10T19:57:54;-0.50;1.00
3794;DHT22;1912;51.358;12.282;2022-12-10T20:00:29;-0.40;1.00
3794;DHT22;1912;51.358;12.282;2022-12-10T20:02:55;-0.40;1.00
3794;DHT22;1912;51.358;12.282;2022-12-10T20:05:21;-0.40;1.00
3794;DHT22;1912;51.358;12.282;2022-12-10T20:07:47;-0.40;1.00
3794;DHT22;1912;51.358;12.282;2022-12-10T20:10:31;-0.40;1.00
3794;DHT22;1912;51.358;12.282;2022-12-10T20:12:57;-0.40;1.00
3794;DHT22;1912;51.358;12.282;2022-12-10T20:15:24;-0.40;1.00
3794;DHT22;1912;51.358;12.282;2022-12-10T20:17:50;-0.40;1.00
3794;DHT22;1912;51.358;12.282;2022-12-10T20:20:21;-0.40;1.00
3794;DHT22;1912;51.358;12.282;2022-12-10T20:22:49;-0.40;1.00
3794;DHT22;1912;51.358;12.282;2022-12-10T20:25:16;-0.50;1.00
3794;DHT22;1912;51.358;12.282;2022-12-10T20:27:42;-0.50;1.00
3794;DHT22;1912;51.358;12.282;2022-12-10T20:30:21;-0.40;1.00
3794;DHT22;1912;51.358;12.282;2022-12-10T20:32:48;-0.40;1.00
3794;DHT22;1912;51.358;12.282;2022-12-10T20:35:16;-0.40;1.00
3794;DHT22;1912;51.358;12.282;2022-12-10T20:37:44;-0.40;1.00
3794;DHT22;1912;51.358;12.282;2022-12-10T20:40:17;-0.40;1.00
3794;DHT22;1912;51.358;12.282;2022-12-10T20:42:44;-0.30;1.00
3794;DHT22;1912;51.358;12.282;2022-12-10T20:45:10;-0.40;1.00
3794;DHT22;1912;51.358;12.282;2022-12-10T20:47:36;-0.30;1.00
3794;DHT22;1912;51.358;12.282;2022-12-10T20:50:02;-0.40;1.00
3794;DHT22;1912;51.358;12.282;2022-12-10T20:52:36;-0.40;1.00
3794;DHT22;1912;51.358;12.282;2022-12-10T20:55:05;-0.30;1.00
3794;DHT22;1912;51.358;12.282;2022-12-10T20:57:31;-0.40;1.00
3794;DHT22;1912;51.358;12.282;2022-12-10T20:59:56;-0.40;1.00
3794;DHT22;1912;51.358;12.282;2022-12-10T21:02:22;-0.50;1.00
3794;DHT22;1912;51.358;12.282;2022-12-10T21:04:48;-0.50;1.00
3794;DHT22;1912;51.358;12.282;2022-12-10T21:07:14;-0.60;1.00
3794;DHT22;1912;51.358;12.282;2022-12-10T21:09:41;-0.60;1.00
3794;DHT22;1912;51.358;12.282;2022-12-10T21:12:07;-0.80;1.00
3794;DHT22;1912;51.358;12.282;2022-12-10T21:14:32;-0.80;1.00
3794;DHT22;1912;51.358;12.282;2022-12-10T21:16:58;-0.70;1.00
3794;DHT22;1912;51.358;12.282;2022-12-10T21:19:24;-0.70;1.00
3794;DHT22;1912;51.358;12.282;2022-12-10T21:21:50;-0.70;1.00
3794;DHT22;1912;51.358;12.282;2022-12-10T21:24:16;-0.70;1.00
3794;DHT22;1912;51.358;12.282;2022-12-10T21:26:42;-0.70;1.00
3794;DHT22;1912;51.358;12.282;2022-12-10T21:29:07;-0.80;1.00
3794;DHT22;1912;51.358;12.282;2022-12-10T21:31:33;-1.00;1.00
3794;DHT22;1912;51.358;12.282;2022-12-10T21:33:59;-0.90;1.00
3794;DHT22;1912;51.358;12.282;2022-12-10T21:36:25;-0.90;1.00
3794;DHT22;1912;51.358;12.282;2022-12-10T21:38:51;-1.00;1.00
3794;DHT22;1912;51.358;12.282;2022-12-10T21:41:20;-1.00;1.00
3794;DHT22;1912;51.358;12.282;2022-12-10T21:44:06;-0.90;1.00
3794;DHT22;1912;51.358;12.282;2022-12-10T21:46:32;-0.90;1.00
3794;DHT22;1912;51.358;12.282;2022-12-10T21:48:57;-1.00;1.00
3794;DHT22;1912;51.358;12.282;2022-12-10T21:51:23;-1.00;1.00
3794;DHT22;1912;51.358;12.282;2022-12-10T21:53:49;-0.90;1.00
